Hearst, Canada
Current Conditions -  °F | °C
As of 8:00 AM on Saturday 20 Dec 2014 (Local Time) from CYYU Reporting Station
Broken Clouds Broken Clouds  
Wind Chill: -6°   Ceiling: 1000
Heat Index: -6°   Visibility: 7mi
Dew Point: -11°   Wind: 3mph
Humidity: 77%   Direction: 180°S
Pressure: 30.29"   Gusts: NA
Location:  49.69°N, 83.66°W
Report Text: CYYU 201300Z 18003KT 7SM SCT006 BKN010 M21/M24 A3029 RMK SC4SC3 FROIN SLP284
Loading
Personal Weather Stations






























Interactive Weather Map New forecast layout! Learn more

10-Day Weather Forecast

Advertisements
Track Severe Weather on mobile